createdAt,value
2018-03-23T00:00:29.286Z,6.95
2018-03-23T00:01:29.003Z,6.99
2018-03-23T00:02:28.730Z,6.91
2018-03-23T00:03:28.697Z,6.97
2018-03-23T00:04:29.224Z,7.02
2018-03-23T00:05:28.925Z,6.99
2018-03-23T00:06:29.062Z,6.99
2018-03-23T00:07:28.891Z,7.02
2018-03-23T00:08:29.141Z,7.02
2018-03-23T00:09:28.852Z,7.05
2018-03-23T00:10:29.097Z,7.01
2018-03-23T00:11:29.077Z,7.01
2018-03-23T00:12:28.797Z,6.99
2018-03-23T00:13:29.034Z,7.01
2018-03-23T00:14:29.025Z,6.87
2018-03-23T00:15:28.743Z,6.98
2018-03-23T00:16:28.990Z,6.99
2018-03-23T00:17:28.435Z,6.83
2018-03-23T00:18:28.672Z,7.02
2018-03-23T00:19:28.660Z,6.97
2018-03-23T00:20:28.904Z,7.01
2018-03-23T00:21:28.624Z,6.95
2018-03-23T00:22:28.913Z,6.9
2018-03-23T00:23:28.880Z,6.95
2018-03-23T00:24:28.570Z,6.87
2018-03-23T00:25:28.814Z,6.86
2018-03-23T00:26:28.527Z,6.9
2018-03-23T00:27:28.502Z,6.89
2018-03-23T00:28:28.484Z,6.89
2018-03-23T00:29:28.465Z,6.9
2018-03-23T00:30:28.185Z,6.89
2018-03-23T00:31:28.487Z,6.89
2018-03-23T00:32:28.416Z,6.9
2018-03-23T00:33:28.125Z,6.91
2018-03-23T00:34:28.408Z,6.87
2018-03-23T00:35:28.356Z,6.86
2018-03-23T00:36:28.139Z,6.87
2018-03-23T00:37:28.310Z,6.86
2018-03-23T00:38:28.307Z,6.86
2018-03-23T00:39:28.633Z,6.9
2018-03-23T00:40:28.302Z,6.86
2018-03-23T00:41:28.503Z,6.8
2018-03-23T00:42:28.534Z,6.87
2018-03-23T00:43:28.378Z,6.84
2018-03-23T00:44:28.340Z,6.83
2018-03-23T00:45:28.460Z,6.89
2018-03-23T00:46:28.446Z,6.87
2018-03-23T00:47:27.853Z,6.89
2018-03-23T00:48:28.122Z,6.91
2018-03-23T00:49:28.092Z,6.86
2018-03-23T00:50:28.072Z,6.83
2018-03-23T00:51:27.778Z,6.89
2018-03-23T00:52:27.758Z,6.89
2018-03-23T00:53:28.047Z,6.81
2018-03-23T00:54:27.721Z,6.83
2018-03-23T00:55:27.710Z,6.73
2018-03-23T00:56:27.949Z,6.81
2018-03-23T00:57:28.261Z,6.79
2018-03-23T00:58:27.907Z,6.79
2018-03-23T00:59:27.638Z,6.77
2018-03-23T01:00:27.871Z,6.79
2018-03-23T01:01:28.169Z,6.76
2018-03-23T01:02:28.094Z,6.76
2018-03-23T01:03:28.080Z,6.73
2018-03-23T01:04:27.790Z,6.68
2018-03-23T01:05:27.783Z,6.65
2018-03-23T01:06:27.493Z,6.59
2018-03-23T01:07:28.062Z,6.59
2018-03-23T01:08:28.060Z,6.65
2018-03-23T01:09:27.699Z,6.66
2018-03-23T01:10:27.667Z,6.63
2018-03-23T01:11:27.652Z,6.63
2018-03-23T01:12:27.372Z,6.63
2018-03-23T01:13:27.882Z,6.61
2018-03-23T01:14:27.600Z,6.56
2018-03-23T01:15:27.580Z,6.63
2018-03-23T01:16:27.966Z,6.63
2018-03-23T01:17:27.993Z,6.61
2018-03-23T01:18:27.528Z,6.63
2018-03-23T01:19:27.569Z,6.58
2018-03-23T01:20:27.746Z,6.62
2018-03-23T01:21:27.743Z,6.61
2018-03-23T01:22:27.178Z,6.62
2018-03-23T01:23:27.506Z,6.59
2018-03-23T01:24:27.402Z,6.58
2018-03-23T01:25:27.406Z,6.53
2018-03-23T01:26:27.627Z,6.61
2018-03-23T01:27:27.344Z,6.59
2018-03-23T01:28:27.351Z,6.54
2018-03-23T01:29:27.592Z,6.56
2018-03-23T01:30:27.020Z,6.62
2018-03-23T01:31:27.276Z,6.59
2018-03-23T01:32:27.246Z,6.5
2018-03-23T01:33:27.225Z,6.54
2018-03-23T01:34:27.506Z,6.58
2018-03-23T01:35:27.208Z,6.61
2018-03-23T01:36:27.169Z,6.58
2018-03-23T01:37:27.155Z,6.53
2018-03-23T01:38:27.129Z,6.53
2018-03-23T01:39:27.113Z,6.5
2018-03-23T01:40:27.385Z,6.54
2018-03-23T01:41:27.382Z,6.5
2018-03-23T01:42:27.082Z,6.59
2018-03-23T01:43:27.097Z,6.51
2018-03-23T01:44:27.043Z,6.5
2018-03-23T01:45:27.110Z,6.51
2018-03-23T01:46:26.980Z,6.47
2018-03-23T01:47:27.232Z,6.44
2018-03-23T01:48:26.931Z,6.48
2018-03-23T01:49:26.920Z,6.32
2018-03-23T01:50:26.688Z,6.47
2018-03-23T01:51:26.876Z,6.46
2018-03-23T01:52:27.291Z,6.46
2018-03-23T01:53:26.565Z,6.46
2018-03-23T01:54:27.084Z,6.35
2018-03-23T01:55:26.530Z,6.44
2018-03-23T01:56:26.513Z,6.33
2018-03-23T01:57:26.961Z,6.4
2018-03-23T01:58:26.994Z,6.35
2018-03-23T01:59:26.712Z,6.43
2018-03-23T02:00:26.958Z,6.43
2018-03-23T02:01:26.956Z,6.36
2018-03-23T02:02:26.659Z,6.36
2018-03-23T02:03:26.366Z,6.38
2018-03-23T02:04:26.352Z,6.36
2018-03-23T02:05:26.330Z,6.3
2018-03-23T02:06:26.571Z,6.3
2018-03-23T02:07:26.566Z,6.26
2018-03-23T02:08:26.806Z,6.33
2018-03-23T02:09:26.522Z,6.28
2018-03-23T02:10:26.512Z,6.38
2018-03-23T02:11:26.220Z,6.3
2018-03-23T02:12:26.461Z,6.28
2018-03-23T02:13:26.491Z,6.33
2018-03-23T02:14:26.427Z,6.33
2018-03-23T02:15:26.808Z,6.33
2018-03-23T02:16:26.503Z,6.33
2018-03-23T02:17:26.378Z,6.33
2018-03-23T02:18:26.621Z,6.26
2018-03-23T02:19:26.334Z,6.26
2018-03-23T02:20:26.306Z,6.29
2018-03-23T02:21:26.549Z,6.29
2018-03-23T02:22:25.998Z,6.28
2018-03-23T02:23:26.246Z,6.19
2018-03-23T02:24:26.607Z,6.21
2018-03-23T02:25:26.475Z,6.21
2018-03-23T02:26:26.556Z,6.28
2018-03-23T02:27:26.232Z,6.28
2018-03-23T02:28:26.535Z,6.25
2018-03-23T02:29:25.928Z,6.21
2018-03-23T02:30:26.218Z,6.21
2018-03-23T02:31:26.549Z,6.29
2018-03-23T02:32:26.628Z,6.18
2018-03-23T02:33:25.858Z,6.16
2018-03-23T02:34:26.368Z,6.25
2018-03-23T02:35:26.045Z,6.22
2018-03-23T02:36:26.033Z,6.28
2018-03-23T02:37:25.968Z,6.26
2018-03-23T02:38:26.002Z,6.22
2018-03-23T02:39:25.954Z,6.26
2018-03-23T02:40:25.925Z,6.22
2018-03-23T02:41:26.159Z,6.07
2018-03-23T02:42:26.144Z,6.1
2018-03-23T02:43:25.586Z,6.13
2018-03-23T02:44:26.235Z,6.13
2018-03-23T02:45:25.564Z,6.18
2018-03-23T02:46:26.097Z,6.22
2018-03-23T02:47:25.786Z,6.18
2018-03-23T02:48:25.755Z,6.13
2018-03-23T02:49:25.810Z,6.1
2018-03-23T02:50:26.174Z,6.07
2018-03-23T02:51:25.429Z,6.1
2018-03-23T02:52:26.158Z,6.16
2018-03-23T02:53:25.922Z,6.16
2018-03-23T02:54:25.634Z,6.14
2018-03-23T02:55:25.625Z,6.16
2018-03-23T02:56:25.873Z,6.18
2018-03-23T02:57:25.904Z,6.19
2018-03-23T02:58:25.587Z,6.18
2018-03-23T02:59:25.265Z,6.21
2018-03-23T03:00:25.512Z,6.09
2018-03-23T03:01:25.543Z,6.19
2018-03-23T03:02:25.211Z,6.19
2018-03-23T03:03:25.923Z,6.13
2018-03-23T03:04:25.468Z,6.1
2018-03-23T03:05:25.799Z,6.1
2018-03-23T03:06:25.399Z,6.28
2018-03-23T03:07:25.652Z,6.16
2018-03-23T03:08:25.229Z,6.21
2018-03-23T03:09:25.810Z,6.22
2018-03-23T03:10:25.096Z,6.25
2018-03-23T03:11:25.599Z,6.26
2018-03-23T03:12:25.299Z,6.25
2018-03-23T03:13:25.531Z,6.25
2018-03-23T03:14:25.242Z,6.22
2018-03-23T03:15:25.211Z,6.21
2018-03-23T03:16:25.191Z,6.28
2018-03-23T03:17:25.440Z,6.19
2018-03-23T03:18:25.160Z,6.21
2018-03-23T03:19:24.922Z,6.22
2018-03-23T03:20:24.855Z,6.19
2018-03-23T03:21:25.357Z,6.28
2018-03-23T03:22:24.813Z,6.21
2018-03-23T03:23:24.916Z,6.19
2018-03-23T03:24:24.790Z,6.19
2018-03-23T03:25:25.027Z,6.22
2018-03-23T03:26:25.263Z,6.16
2018-03-23T03:27:25.283Z,6.22
2018-03-23T03:28:25.088Z,6.21
2018-03-23T03:29:25.129Z,6.22
2018-03-23T03:30:25.276Z,6.25
2018-03-23T03:31:25.028Z,6.21
2018-03-23T03:32:25.154Z,6.19
2018-03-23T03:33:24.594Z,6.25
2018-03-23T03:34:25.188Z,6.29
2018-03-23T03:35:24.828Z,6.26
2018-03-23T03:36:24.581Z,6.25
2018-03-23T03:37:25.058Z,6.25
2018-03-23T03:38:25.068Z,6.07
2018-03-23T03:39:24.793Z,6.16
2018-03-23T03:40:24.722Z,6.11
2018-03-23T03:41:24.700Z,6.11
2018-03-23T03:42:24.733Z,6.11
2018-03-23T03:43:24.996Z,6.09
2018-03-23T03:44:24.376Z,6.14
2018-03-23T03:45:24.890Z,6.16
2018-03-23T03:46:24.868Z,6.21
2018-03-23T03:47:24.855Z,6.16
2018-03-23T03:48:24.948Z,6.22
2018-03-23T03:49:24.547Z,6.22
2018-03-23T03:50:24.527Z,6.19
2018-03-23T03:51:24.511Z,6.19
2018-03-23T03:52:24.486Z,6.11
2018-03-23T03:53:24.730Z,6.18
2018-03-23T03:54:24.720Z,6.22
2018-03-23T03:55:24.435Z,6.19
2018-03-23T03:56:24.145Z,6.14
2018-03-23T03:57:24.618Z,6.18
2018-03-23T03:58:24.814Z,6.13
2018-03-23T03:59:24.349Z,6.11
2018-03-23T04:00:24.065Z,6.14
2018-03-23T04:01:24.577Z,6.14
2018-03-23T04:02:24.295Z,6.21
2018-03-23T04:03:24.003Z,6.19
2018-03-23T04:04:24.525Z,6.21
2018-03-23T04:05:24.115Z,6.18
2018-03-23T04:06:24.222Z,6.21
2018-03-23T04:07:24.191Z,6.21
2018-03-23T04:08:24.172Z,6.18
2018-03-23T04:09:24.629Z,6.25
2018-03-23T04:10:24.144Z,6.25
2018-03-23T04:11:24.121Z,6.25
2018-03-23T04:12:24.613Z,6.21
2018-03-23T04:13:23.811Z,6.21
2018-03-23T04:14:24.064Z,6.13
2018-03-23T04:15:24.482Z,6.19
2018-03-23T04:16:24.454Z,6.22
2018-03-23T04:17:24.283Z,6.14
2018-03-23T04:18:24.246Z,6.16
2018-03-23T04:19:23.969Z,6.14
2018-03-23T04:20:23.947Z,6.13
2018-03-23T04:21:23.963Z,6.1
2018-03-23T04:22:23.898Z,6.22
2018-03-23T04:23:23.718Z,6.22
2018-03-23T04:24:23.861Z,6.25
2018-03-23T04:25:24.298Z,6.22
2018-03-23T04:26:24.025Z,6.28
2018-03-23T04:27:24.101Z,6.22
2018-03-23T04:28:24.277Z,6.26
2018-03-23T04:29:23.779Z,6.25
2018-03-23T04:30:23.842Z,6.28
2018-03-23T04:31:24.226Z,6.29
2018-03-23T04:32:23.454Z,6.28
2018-03-23T04:33:23.727Z,6.28
2018-03-23T04:34:23.476Z,6.25
2018-03-23T04:35:24.067Z,6.25
2018-03-23T04:36:23.626Z,6.21
2018-03-23T04:37:23.879Z,6.29
2018-03-23T04:38:23.324Z,6.26
2018-03-23T04:39:23.570Z,6.18
2018-03-23T04:40:23.548Z,6.26
2018-03-23T04:41:23.795Z,6.22
2018-03-23T04:42:23.507Z,6.32
2018-03-23T04:43:23.494Z,6.32
2018-03-23T04:44:23.896Z,6.32
2018-03-23T04:45:23.452Z,6.28
2018-03-23T04:46:23.754Z,6.29
2018-03-23T04:47:23.413Z,6.3
2018-03-23T04:48:23.395Z,6.29
2018-03-23T04:49:23.645Z,6.38
2018-03-23T04:50:23.620Z,6.29
2018-03-23T04:51:23.610Z,6.32
2018-03-23T04:52:23.051Z,6.36
2018-03-23T04:53:23.037Z,6.28
2018-03-23T04:54:23.024Z,6.26
2018-03-23T04:55:23.257Z,6.32
2018-03-23T04:56:23.233Z,6.3
2018-03-23T04:57:23.216Z,6.32
2018-03-23T04:58:23.199Z,6.29
2018-03-23T04:59:23.177Z,6.3
2018-03-23T05:00:23.431Z,6.32
2018-03-23T05:01:23.140Z,6.3
2018-03-23T05:02:23.120Z,6.35
2018-03-23T05:03:23.366Z,6.3
2018-03-23T05:04:22.822Z,6.35
2018-03-23T05:05:22.793Z,6.3
2018-03-23T05:06:22.782Z,6.26
2018-03-23T05:07:23.025Z,6.33
2018-03-23T05:08:22.735Z,6.36
2018-03-23T05:09:22.766Z,6.26
2018-03-23T05:10:23.258Z,6.35
2018-03-23T05:11:22.944Z,6.38
2018-03-23T05:12:23.203Z,6.36
2018-03-23T05:13:22.975Z,6.35
2018-03-23T05:14:23.037Z,6.46
2018-03-23T05:15:22.597Z,6.35
2018-03-23T05:16:23.282Z,6.46
2018-03-23T05:17:23.182Z,6.33
2018-03-23T05:18:22.904Z,6.32
2018-03-23T05:19:23.097Z,6.43
2018-03-23T05:20:22.504Z,6.35
2018-03-23T05:21:22.748Z,6.4
2018-03-23T05:22:22.738Z,6.4
2018-03-23T05:23:22.713Z,6.4
2018-03-23T05:24:23.059Z,6.4
2018-03-23T05:25:22.672Z,6.4
2018-03-23T05:26:22.922Z,6.35
2018-03-23T05:27:22.904Z,6.35
2018-03-23T05:28:22.682Z,6.35
2018-03-23T05:29:22.869Z,6.44
2018-03-23T05:30:22.835Z,6.43
2018-03-23T05:31:22.550Z,6.44
2018-03-23T05:32:22.805Z,6.43
2018-03-23T05:33:22.857Z,6.5
2018-03-23T05:34:22.491Z,6.5
2018-03-23T05:35:22.746Z,6.53
2018-03-23T05:36:22.458Z,6.54
2018-03-23T05:37:22.766Z,6.51
2018-03-23T05:38:22.145Z,6.62
2018-03-23T05:39:22.692Z,6.54
2018-03-23T05:40:22.718Z,6.53
2018-03-23T05:41:22.096Z,6.53
2018-03-23T05:42:22.604Z,6.56
2018-03-23T05:43:22.583Z,6.56
2018-03-23T05:44:22.087Z,6.53
2018-03-23T05:45:22.547Z,6.51
2018-03-23T05:46:22.477Z,6.62
2018-03-23T05:47:22.288Z,6.54
2018-03-23T05:48:22.230Z,6.53
2018-03-23T05:49:22.472Z,6.56
2018-03-23T05:50:22.229Z,6.58
2018-03-23T05:51:22.231Z,6.59
2018-03-23T05:52:22.195Z,6.58
2018-03-23T05:53:21.901Z,6.5
2018-03-23T05:54:22.370Z,6.53
2018-03-23T05:55:22.086Z,6.54
2018-03-23T05:56:22.077Z,6.53
2018-03-23T05:57:22.245Z,6.54
2018-03-23T05:58:22.334Z,6.54
2018-03-23T05:59:22.012Z,6.51
2018-03-23T06:00:22.244Z,6.5
2018-03-23T06:01:21.986Z,6.51
2018-03-23T06:02:21.683Z,6.47
2018-03-23T06:03:21.661Z,6.58
2018-03-23T06:04:22.183Z,6.56
2018-03-23T06:05:21.897Z,6.56
2018-03-23T06:06:21.662Z,6.62
2018-03-23T06:07:22.110Z,6.54
2018-03-23T06:08:21.834Z,6.62
2018-03-23T06:09:22.072Z,6.62
2018-03-23T06:10:21.784Z,6.71
2018-03-23T06:11:21.773Z,6.59
2018-03-23T06:12:21.747Z,6.61
2018-03-23T06:13:21.743Z,6.62
2018-03-23T06:14:21.715Z,6.69
2018-03-23T06:15:21.763Z,6.62
2018-03-23T06:16:21.944Z,6.62
2018-03-23T06:17:21.392Z,6.66
2018-03-23T06:18:21.645Z,6.68
2018-03-23T06:19:21.618Z,6.68
2018-03-23T06:20:21.933Z,6.65
2018-03-23T06:21:21.575Z,6.59
2018-03-23T06:22:21.725Z,6.73
2018-03-23T06:23:21.291Z,6.62
2018-03-23T06:24:21.518Z,6.62
2018-03-23T06:25:21.499Z,6.73
2018-03-23T06:26:21.229Z,6.69
2018-03-23T06:27:21.475Z,6.71
2018-03-23T06:28:21.706Z,6.8
2018-03-23T06:29:21.479Z,6.66
2018-03-23T06:30:21.416Z,6.76
2018-03-23T06:31:21.670Z,6.72
2018-03-23T06:32:21.628Z,6.73
2018-03-23T06:33:21.343Z,6.69
2018-03-23T06:34:21.320Z,6.8
2018-03-23T06:35:21.308Z,6.72
2018-03-23T06:36:21.652Z,6.8
2018-03-23T06:37:21.311Z,6.8
2018-03-23T06:38:21.517Z,6.76
2018-03-23T06:39:20.977Z,6.72
2018-03-23T06:40:21.242Z,6.77
2018-03-23T06:41:21.534Z,6.77
2018-03-23T06:42:21.167Z,6.79
2018-03-23T06:43:21.186Z,6.8
2018-03-23T06:44:21.122Z,6.71
2018-03-23T06:45:20.839Z,6.79
2018-03-23T06:46:21.358Z,6.83
2018-03-23T06:47:21.069Z,6.76
2018-03-23T06:48:21.051Z,6.84
2018-03-23T06:49:20.758Z,6.8
2018-03-23T06:50:20.749Z,6.83
2018-03-23T06:51:21.252Z,6.86
2018-03-23T06:52:21.237Z,6.83
2018-03-23T06:53:20.685Z,6.77
2018-03-23T06:54:21.198Z,6.86
2018-03-23T06:55:20.907Z,6.83
2018-03-23T06:56:21.159Z,6.83
2018-03-23T06:57:20.604Z,6.89
2018-03-23T06:58:20.853Z,6.83
2018-03-23T06:59:20.839Z,6.86
2018-03-23T07:00:20.813Z,6.89
2018-03-23T07:01:20.790Z,6.8
2018-03-23T07:02:20.774Z,6.8
2018-03-23T07:03:20.752Z,6.84
2018-03-23T07:04:20.730Z,6.84
2018-03-23T07:05:20.711Z,6.8
2018-03-23T07:06:20.691Z,6.83
2018-03-23T07:07:20.678Z,6.8
2018-03-23T07:08:20.666Z,6.8
2018-03-23T07:09:20.898Z,6.95
2018-03-23T07:10:20.615Z,6.91
2018-03-23T07:11:20.593Z,6.9
2018-03-23T07:12:20.593Z,6.86
2018-03-23T07:13:20.563Z,6.94
2018-03-23T07:14:20.272Z,6.91
2018-03-23T07:15:20.523Z,6.94
2018-03-23T07:16:20.812Z,6.91
2018-03-23T07:17:20.313Z,6.9
2018-03-23T07:18:20.459Z,6.87
2018-03-23T07:19:20.707Z,6.83
2018-03-23T07:20:20.420Z,6.87
2018-03-23T07:21:20.136Z,6.89
2018-03-23T07:22:20.651Z,6.89
2018-03-23T07:23:20.640Z,6.86
2018-03-23T07:24:20.417Z,6.89
2018-03-23T07:25:20.057Z,6.86
2018-03-23T07:26:20.570Z,6.71
2018-03-23T07:27:20.306Z,6.8
2018-03-23T07:28:20.538Z,6.81
2018-03-23T07:29:20.629Z,6.66
2018-03-23T07:30:20.219Z,6.71
2018-03-23T07:31:20.466Z,6.77
2018-03-23T07:32:19.918Z,6.73
2018-03-23T07:33:20.164Z,6.76
2018-03-23T07:34:20.409Z,6.76
2018-03-23T07:35:19.858Z,6.79
2018-03-23T07:36:20.105Z,6.71
2018-03-23T07:37:20.087Z,6.68
2018-03-23T07:38:20.123Z,6.73
2018-03-23T07:39:19.775Z,6.69
2018-03-23T07:40:20.025Z,6.71
2018-03-23T07:41:20.006Z,6.71
2018-03-23T07:42:19.721Z,6.8
2018-03-23T07:43:19.965Z,6.77
2018-03-23T07:44:20.218Z,6.79
2018-03-23T07:45:20.227Z,6.83
2018-03-23T07:46:20.171Z,6.76
2018-03-23T07:47:20.152Z,6.77
2018-03-23T07:48:20.151Z,6.8
2018-03-23T07:49:19.582Z,6.8
2018-03-23T07:50:19.827Z,6.77
2018-03-23T07:51:19.814Z,6.84
2018-03-23T07:52:19.525Z,6.8
2018-03-23T07:53:19.772Z,6.76
2018-03-23T07:54:19.758Z,6.8
2018-03-23T07:55:19.740Z,6.8
2018-03-23T07:56:19.448Z,6.8
2018-03-23T07:57:20.293Z,6.83
2018-03-23T07:58:19.672Z,6.77
2018-03-23T07:59:19.655Z,6.76
2018-03-23T08:00:19.633Z,6.84
2018-03-23T08:01:19.875Z,6.86
2018-03-23T08:02:19.597Z,6.76
2018-03-23T08:03:19.570Z,6.8
2018-03-23T08:04:19.824Z,6.77
2018-03-23T08:05:20.026Z,6.86
2018-03-23T08:06:19.516Z,6.87
2018-03-23T08:07:19.498Z,6.94
2018-03-23T08:08:19.477Z,6.87
2018-03-23T08:09:19.453Z,6.91
2018-03-23T08:10:19.237Z,6.87
2018-03-23T08:11:19.687Z,6.89
2018-03-23T08:12:19.517Z,6.97
2018-03-23T08:13:19.442Z,6.95
2018-03-23T08:14:19.631Z,6.84
2018-03-23T08:15:19.609Z,6.97
2018-03-23T08:16:19.317Z,6.98
2018-03-23T08:17:19.036Z,6.99
2018-03-23T08:18:19.014Z,6.98
2018-03-23T08:19:19.652Z,7.01
2018-03-23T08:20:19.517Z,7.07
2018-03-23T08:21:19.223Z,7.08
2018-03-23T08:22:19.469Z,7.08
2018-03-23T08:23:18.929Z,7.12
2018-03-23T08:24:18.907Z,7.12
2018-03-23T08:25:19.418Z,7.12
2018-03-23T08:26:19.149Z,7.27
2018-03-23T08:27:19.115Z,7.23
2018-03-23T08:28:19.093Z,7.19
2018-03-23T08:29:19.356Z,7.13
2018-03-23T08:30:19.482Z,7.17
2018-03-23T08:31:19.037Z,7.26
2018-03-23T08:32:19.024Z,7.15
2018-03-23T08:33:19.449Z,7.2
2018-03-23T08:34:18.987Z,7.24
2018-03-23T08:35:18.968Z,7.34
2018-03-23T08:36:18.675Z,7.35
2018-03-23T08:37:19.194Z,7.44
2018-03-23T08:38:18.917Z,7.4
2018-03-23T08:39:18.913Z,7.45
2018-03-23T08:40:18.875Z,7.31
2018-03-23T08:41:18.862Z,7.35
2018-03-23T08:42:18.857Z,7.2
2018-03-23T08:43:18.820Z,7.24
2018-03-23T08:44:18.829Z,7.37
2018-03-23T08:45:19.068Z,7.34
2018-03-23T08:46:18.775Z,7.24
2018-03-23T08:47:18.743Z,7.29
2018-03-23T08:48:18.983Z,7.24
2018-03-23T08:49:18.709Z,7.23
2018-03-23T08:50:18.692Z,7.37
2018-03-23T08:51:18.929Z,7.35
2018-03-23T08:52:18.916Z,7.34
2018-03-23T08:53:18.633Z,7.34
2018-03-23T08:54:18.616Z,7.38
2018-03-23T08:55:18.857Z,7.4
2018-03-23T08:56:18.581Z,7.53
2018-03-23T08:57:18.828Z,7.53
2018-03-23T08:58:18.550Z,7.55
2018-03-23T08:59:18.520Z,7.49
2018-03-23T09:00:18.912Z,7.52
2018-03-23T09:01:18.219Z,7.62
2018-03-23T09:02:18.466Z,7.77
2018-03-23T09:03:18.184Z,7.69
2018-03-23T09:04:18.700Z,7.59
2018-03-23T09:05:18.413Z,7.63
2018-03-23T09:06:18.137Z,7.52
2018-03-23T09:07:18.378Z,7.59
2018-03-23T09:08:18.555Z,7.62
2018-03-23T09:09:18.607Z,7.59
2018-03-23T09:10:18.328Z,7.6
2018-03-23T09:11:18.042Z,7.6
2018-03-23T09:12:18.289Z,7.71
2018-03-23T09:13:18.266Z,7.63
2018-03-23T09:14:18.066Z,7.74
2018-03-23T09:15:18.513Z,7.81
2018-03-23T09:16:18.474Z,7.9
2018-03-23T09:17:18.024Z,7.82
2018-03-23T09:18:18.442Z,7.82
2018-03-23T09:19:17.968Z,7.9
2018-03-23T09:20:18.409Z,7.89
2018-03-23T09:21:17.856Z,7.84
2018-03-23T09:22:18.367Z,7.9
2018-03-23T09:23:17.817Z,7.82
2018-03-23T09:24:18.064Z,7.85
2018-03-23T09:25:18.049Z,7.85
2018-03-23T09:26:17.770Z,7.93
2018-03-23T09:27:17.749Z,7.82
2018-03-23T09:28:18.260Z,7.81
2018-03-23T09:29:17.710Z,7.85
2018-03-23T09:30:17.960Z,7.93
2018-03-23T09:31:17.963Z,7.81
2018-03-23T09:32:17.926Z,7.85
2018-03-23T09:33:17.901Z,7.81
2018-03-23T09:34:18.156Z,7.85
2018-03-23T09:35:17.870Z,7.82
2018-03-23T09:36:17.847Z,7.85
2018-03-23T09:37:18.224Z,7.89
2018-03-23T09:38:18.077Z,7.85
2018-03-23T09:39:18.066Z,7.97
2018-03-23T09:40:17.781Z,7.97
2018-03-23T09:41:17.762Z,8.02
2018-03-23T09:42:17.786Z,8.14
2018-03-23T09:43:17.726Z,8.08
2018-03-23T09:44:18.061Z,8.15
2018-03-23T09:45:17.703Z,8.07
2018-03-23T09:46:17.938Z,8.04
2018-03-23T09:47:17.923Z,8.02
2018-03-23T09:48:17.374Z,8
2018-03-23T09:49:17.624Z,7.99
2018-03-23T09:50:17.713Z,8
2018-03-23T09:51:17.844Z,8.02
2018-03-23T09:52:17.831Z,8
2018-03-23T09:53:17.810Z,8
2018-03-23T09:54:17.531Z,8.04
2018-03-23T09:55:17.520Z,7.87
2018-03-23T09:56:17.798Z,7.99
2018-03-23T09:57:17.485Z,7.93
2018-03-23T09:58:17.469Z,7.99
2018-03-23T09:59:17.466Z,8.1
2018-03-23T10:00:17.688Z,8
2018-03-23T10:01:17.559Z,8.04
2018-03-23T10:02:17.673Z,8.04
2018-03-23T10:03:17.635Z,8
2018-03-23T10:04:17.631Z,7.93
2018-03-23T10:05:17.368Z,7.9
2018-03-23T10:06:17.395Z,7.93
2018-03-23T10:07:17.697Z,7.92
2018-03-23T10:08:17.303Z,7.9
2018-03-23T10:09:17.526Z,7.84
2018-03-23T10:10:17.245Z,7.82
2018-03-23T10:11:16.963Z,7.82
2018-03-23T10:12:17.474Z,7.85
2018-03-23T10:13:17.220Z,7.85
2018-03-23T10:14:17.171Z,7.84
2018-03-23T10:15:17.229Z,7.84
2018-03-23T10:16:17.157Z,7.94
2018-03-23T10:17:17.437Z,7.87
2018-03-23T10:18:17.115Z,8.03
2018-03-23T10:19:17.353Z,8.11
2018-03-23T10:20:16.827Z,7.94
2018-03-23T10:21:17.145Z,7.94
2018-03-23T10:22:17.174Z,8.02
2018-03-23T10:23:17.402Z,8.07
2018-03-23T10:24:17.293Z,8.04
2018-03-23T10:25:17.066Z,7.97
2018-03-23T10:26:17.266Z,7.97
2018-03-23T10:27:17.262Z,8
2018-03-23T10:28:16.921Z,8.03
2018-03-23T10:29:17.283Z,8.17
2018-03-23T10:30:17.240Z,8.2
2018-03-23T10:31:16.874Z,8.22
2018-03-23T10:32:16.637Z,8.33
2018-03-23T10:33:16.896Z,8.36
2018-03-23T10:34:17.131Z,8.32
2018-03-23T10:35:16.885Z,8.25
2018-03-23T10:36:17.097Z,8.35
2018-03-23T10:37:16.904Z,8.29
2018-03-23T10:38:17.075Z,8.39
2018-03-23T10:39:16.734Z,8.42
2018-03-23T10:40:16.712Z,8.58
2018-03-23T10:41:16.763Z,8.75
2018-03-23T10:42:16.479Z,8.73
2018-03-23T10:43:16.803Z,8.91
2018-03-23T10:44:16.651Z,8.87
2018-03-23T10:45:16.695Z,8.86
2018-03-23T10:46:16.877Z,9.02
2018-03-23T10:47:16.746Z,8.97
2018-03-23T10:48:16.313Z,9.04
2018-03-23T10:49:16.950Z,9.02
2018-03-23T10:50:16.302Z,9.3
2018-03-23T10:51:16.632Z,9.48
2018-03-23T10:52:16.302Z,9.35
2018-03-23T10:53:16.762Z,9.63
2018-03-23T10:54:16.419Z,9.85
2018-03-23T10:55:16.913Z,9.82
2018-03-23T10:56:16.448Z,9.93
2018-03-23T10:57:16.717Z,9.79
2018-03-23T10:58:16.427Z,10
2018-03-23T10:59:16.799Z,10
2018-03-23T11:00:16.809Z,10.03
2018-03-23T11:01:16.670Z,10.01
2018-03-23T11:02:16.454Z,9.81
2018-03-23T11:03:16.617Z,9.82
2018-03-23T11:04:16.262Z,9.63
2018-03-23T11:05:16.144Z,9.43
2018-03-23T11:06:16.491Z,9.12
2018-03-23T11:07:16.311Z,9.24
2018-03-23T11:08:16.288Z,9.45
2018-03-23T11:09:16.036Z,9.53
2018-03-23T11:10:16.393Z,9.58
2018-03-23T11:11:16.316Z,9.58
2018-03-23T11:12:16.219Z,9.7
2018-03-23T11:13:16.473Z,9.79
2018-03-23T11:14:16.196Z,9.79
2018-03-23T11:15:16.452Z,9.83
2018-03-23T11:16:16.429Z,9.66
2018-03-23T11:17:15.887Z,9.58
2018-03-23T11:18:16.185Z,9.68
2018-03-23T11:19:16.121Z,9.81
2018-03-23T11:20:16.113Z,9.67
2018-03-23T11:21:15.822Z,9.57
2018-03-23T11:22:15.802Z,9.45
2018-03-23T11:23:16.323Z,9.42
2018-03-23T11:24:15.776Z,9.25
2018-03-23T11:25:15.757Z,9.25
2018-03-23T11:26:16.012Z,9.39
2018-03-23T11:27:16.257Z,9.4
2018-03-23T11:28:15.982Z,9.45
2018-03-23T11:29:15.700Z,9.57
2018-03-23T11:30:16.330Z,9.4
2018-03-23T11:31:15.940Z,9.48
2018-03-23T11:32:15.923Z,9.48
2018-03-23T11:33:15.904Z,9.52
2018-03-23T11:34:16.170Z,9.46
2018-03-23T11:35:15.613Z,9.34
2018-03-23T11:36:15.861Z,9.3
2018-03-23T11:37:15.854Z,9.3
2018-03-23T11:38:15.827Z,9.27
2018-03-23T11:39:15.818Z,9.16
2018-03-23T11:40:15.533Z,9.18
2018-03-23T11:41:16.053Z,8.94
2018-03-23T11:42:15.503Z,8.91
2018-03-23T11:43:15.748Z,9.12
2018-03-23T11:44:15.484Z,9.23
2018-03-23T11:45:15.452Z,9.27
2018-03-23T11:46:15.706Z,9.23
2018-03-23T11:47:15.418Z,9.3
2018-03-23T11:48:15.942Z,9.16
2018-03-23T11:49:15.389Z,9.21
2018-03-23T11:50:15.376Z,9.16
2018-03-23T11:51:15.623Z,9.25
2018-03-23T11:52:15.341Z,9.25
2018-03-23T11:53:15.324Z,9.13
2018-03-23T11:54:15.575Z,9.16
2018-03-23T11:55:15.294Z,9.15
2018-03-23T11:56:15.276Z,9.1
2018-03-23T11:57:15.793Z,9.16
2018-03-23T11:58:15.980Z,9.18
2018-03-23T11:59:15.758Z,9.16
2018-03-23T12:00:15.750Z,9.15
2018-03-23T12:01:15.201Z,9.05
2018-03-23T12:02:15.442Z,8.93
2018-03-23T12:03:15.696Z,8.93
2018-03-23T12:04:15.408Z,8.96
2018-03-23T12:05:15.134Z,8.96
2018-03-23T12:06:15.381Z,8.91
2018-03-23T12:07:15.620Z,8.96
2018-03-23T12:08:15.608Z,8.94
2018-03-23T12:09:15.328Z,8.87
2018-03-23T12:10:15.045Z,8.9
2018-03-23T12:11:15.032Z,8.88
2018-03-23T12:12:15.539Z,8.93
2018-03-23T12:13:15.257Z,8.97
2018-03-23T12:14:15.304Z,9.05
2018-03-23T12:15:15.489Z,9.04
2018-03-23T12:16:15.205Z,9.09
2018-03-23T12:17:15.191Z,8.94
2018-03-23T12:18:14.904Z,9.02
2018-03-23T12:19:15.451Z,9.06
2018-03-23T12:20:15.141Z,9.09
2018-03-23T12:21:15.387Z,9.05
2018-03-23T12:22:15.364Z,8.99
2018-03-23T12:23:14.822Z,9.02
2018-03-23T12:24:15.071Z,9.13
2018-03-23T12:25:15.054Z,9.09
2018-03-23T12:26:15.301Z,9.12
2018-03-23T12:27:14.755Z,9.13
2018-03-23T12:28:14.737Z,9.13
2018-03-23T12:29:14.718Z,9.2
2018-03-23T12:30:14.964Z,8.93
2018-03-23T12:31:15.217Z,8.94
2018-03-23T12:32:14.956Z,8.88
2018-03-23T12:33:14.919Z,8.9
2018-03-23T12:34:14.634Z,8.93
2018-03-23T12:35:14.880Z,8.94
2018-03-23T12:36:14.600Z,8.9
2018-03-23T12:37:15.121Z,8.87
2018-03-23T12:38:14.835Z,8.83
2018-03-23T12:39:15.088Z,8.88
2018-03-23T12:40:14.530Z,8.9
2018-03-23T12:41:14.514Z,8.87
2018-03-23T12:42:14.762Z,8.76
2018-03-23T12:43:15.016Z,8.73
2018-03-23T12:44:14.730Z,8.72
2018-03-23T12:45:14.980Z,8.69
2018-03-23T12:46:14.424Z,8.73
2018-03-23T12:47:14.679Z,8.78
2018-03-23T12:48:14.659Z,8.76
2018-03-23T12:49:14.643Z,8.72
2018-03-23T12:50:14.892Z,8.75
2018-03-23T12:51:14.873Z,8.71
2018-03-23T12:52:14.594Z,8.71
2018-03-23T12:53:14.308Z,8.79
2018-03-23T12:54:14.554Z,8.75
2018-03-23T12:55:14.538Z,8.68
2018-03-23T12:56:14.860Z,8.63
2018-03-23T12:57:14.508Z,8.71
2018-03-23T12:58:14.747Z,8.66
2018-03-23T12:59:14.487Z,8.68
2018-03-23T13:00:14.454Z,8.65
2018-03-23T13:01:14.710Z,8.58
2018-03-23T13:02:14.685Z,8.69
2018-03-23T13:03:14.138Z,8.72
2018-03-23T13:04:14.120Z,8.72
2018-03-23T13:05:14.362Z,8.79
2018-03-23T13:06:14.082Z,8.79
2018-03-23T13:07:14.333Z,8.78
2018-03-23T13:08:14.578Z,8.73
2018-03-23T13:09:14.557Z,8.66
2018-03-23T13:10:14.285Z,8.69
2018-03-23T13:11:14.525Z,8.68
2018-03-23T13:12:14.240Z,8.68
2018-03-23T13:13:13.960Z,8.73
2018-03-23T13:14:13.938Z,8.65
2018-03-23T13:15:14.185Z,8.66
2018-03-23T13:16:14.175Z,8.73
2018-03-23T13:17:14.170Z,8.65
2018-03-23T13:18:13.870Z,8.71
2018-03-23T13:19:14.378Z,8.72
2018-03-23T13:20:14.097Z,8.65
2018-03-23T13:21:13.819Z,8.65
2018-03-23T13:22:13.801Z,8.71